sensor_id;sensor_type;location;lat;lon;timestamp;pressure;altitude;pressure_sealevel;temperature;humidity
23321;BME280;33376;51.306;4.752;2023-04-06T00:02:08;102232.53;;;3.79;nan
23321;BME280;33376;51.306;4.752;2023-04-06T00:04:33;102234.34;;;3.68;nan
23321;BME280;33376;51.306;4.752;2023-04-06T00:06:59;102240.53;;;3.50;nan
23321;BME280;33376;51.306;4.752;2023-04-06T00:09:24;102243.13;;;3.56;nan
23321;BME280;33376;51.306;4.752;2023-04-06T00:11:49;102244.03;;;3.52;nan
23321;BME280;33376;51.306;4.752;2023-04-06T00:14:15;102243.16;;;3.50;nan
23321;BME280;33376;51.306;4.752;2023-04-06T00:16:42;102249.28;;;3.54;nan
23321;BME280;33376;51.306;4.752;2023-04-06T00:19:07;102243.22;;;3.38;nan
23321;BME280;33376;51.306;4.752;2023-04-06T00:21:32;102244.03;;;3.45;nan
23321;BME280;33376;51.306;4.752;2023-04-06T00:23:58;102240.53;;;3.55;nan
23321;BME280;33376;51.306;4.752;2023-04-06T00:26:23;102230.03;;;3.53;nan
23321;BME280;33376;51.306;4.752;2023-04-06T00:28:48;102223.03;;;3.58;nan
23321;BME280;33376;51.306;4.752;2023-04-06T00:31:15;102236.19;;;3.49;nan
23321;BME280;33376;51.306;4.752;2023-04-06T00:33:40;102226.53;;;3.62;nan
23321;BME280;33376;51.306;4.752;2023-04-06T00:36:06;102224.78;;;3.56;nan
23321;BME280;33376;51.306;4.752;2023-04-06T00:38:31;102206.41;;;3.67;nan
23321;BME280;33376;51.306;4.752;2023-04-06T00:40:56;102203.75;;;3.68;nan
23321;BME280;33376;51.306;4.752;2023-04-06T00:43:22;102198.53;;;3.61;nan
23321;BME280;33376;51.306;4.752;2023-04-06T00:45:47;102191.59;;;3.54;nan
23321;BME280;33376;51.306;4.752;2023-04-06T00:48:12;102188.94;;;3.60;nan
23321;BME280;33376;51.306;4.752;2023-04-06T00:50:38;102179.31;;;3.63;nan
23321;BME280;33376;51.306;4.752;2023-04-06T00:53:03;102186.22;;;3.79;nan
23321;BME280;33376;51.306;4.752;2023-04-06T00:55:28;102185.38;;;3.73;nan
23321;BME280;33376;51.306;4.752;2023-04-06T00:57:55;102198.56;;;3.53;nan
23321;BME280;33376;51.306;4.752;2023-04-06T01:00:21;102206.53;;;3.37;nan
23321;BME280;33376;51.306;4.752;2023-04-06T01:02:47;102205.66;;;3.35;nan
23321;BME280;33376;51.306;4.752;2023-04-06T01:05:13;102214.44;;;3.16;nan
23321;BME280;33376;51.306;4.752;2023-04-06T01:07:38;102196.06;;;3.25;nan
23321;BME280;33376;51.306;4.752;2023-04-06T01:10:03;102209.16;;;3.28;nan
23321;BME280;33376;51.306;4.752;2023-04-06T01:12:29;102206.56;;;3.23;nan
23321;BME280;33376;51.306;4.752;2023-04-06T01:14:55;102194.25;;;3.39;nan
23321;BME280;33376;51.306;4.752;2023-04-06T01:17:20;102183.72;;;3.52;nan
23321;BME280;33376;51.306;4.752;2023-04-06T01:19:46;102183.56;;;3.81;nan
23321;BME280;33376;51.306;4.752;2023-04-06T01:22:17;102175.75;;;3.70;nan
23321;BME280;33376;51.306;4.752;2023-04-06T01:24:42;102172.28;;;3.70;nan
23321;BME280;33376;51.306;4.752;2023-04-06T01:27:07;102172.31;;;3.61;nan
23321;BME280;33376;51.306;4.752;2023-04-06T01:29:33;102181.94;;;3.59;nan
23321;BME280;33376;51.306;4.752;2023-04-06T01:31:58;102176.66;;;3.66;nan
23321;BME280;33376;51.306;4.752;2023-04-06T01:34:23;102163.50;;;3.74;nan
23321;BME280;33376;51.306;4.752;2023-04-06T01:36:49;102160.03;;;3.67;nan
23321;BME280;33376;51.306;4.752;2023-04-06T01:39:15;102160.97;;;3.62;nan
23321;BME280;33376;51.306;4.752;2023-04-06T01:41:40;102158.44;;;3.42;nan
23321;BME280;33376;51.306;4.752;2023-04-06T01:44:05;102157.56;;;3.40;nan
23321;BME280;33376;51.306;4.752;2023-04-06T01:46:31;102160.16;;;3.46;nan
23321;BME280;33376;51.306;4.752;2023-04-06T01:48:56;102163.63;;;3.57;nan
23321;BME280;33376;51.306;4.752;2023-04-06T01:51:21;102161.00;;;3.57;nan
23321;BME280;33376;51.306;4.752;2023-04-06T01:53:46;102158.34;;;3.60;nan
23321;BME280;33376;51.306;4.752;2023-04-06T01:56:13;102143.44;;;3.67;nan
23321;BME280;33376;51.306;4.752;2023-04-06T01:58:38;102134.59;;;3.80;nan
23321;BME280;33376;51.306;4.752;2023-04-06T02:01:03;102120.56;;;3.90;nan
23321;BME280;33376;51.306;4.752;2023-04-06T02:03:29;102111.81;;;3.91;nan
23321;BME280;33376;51.306;4.752;2023-04-06T02:05:55;102099.53;;;3.93;nan
23321;BME280;33376;51.306;4.752;2023-04-06T02:08:20;102089.00;;;3.97;nan
23321;BME280;33376;51.306;4.752;2023-04-06T02:10:46;102089.84;;;4.01;nan
23321;BME280;33376;51.306;4.752;2023-04-06T02:13:11;102071.44;;;4.08;nan
23321;BME280;33376;51.306;4.752;2023-04-06T02:15:36;102073.25;;;4.00;nan
23321;BME280;33376;51.306;4.752;2023-04-06T02:18:01;102060.03;;;4.11;nan
23321;BME280;33376;51.306;4.752;2023-04-06T02:20:27;102043.38;;;4.16;nan
23321;BME280;33376;51.306;4.752;2023-04-06T02:22:52;102037.25;;;4.14;nan
23321;BME280;33376;51.306;4.752;2023-04-06T02:25:17;102050.38;;;4.16;nan
23321;BME280;33376;51.306;4.752;2023-04-06T02:27:42;102056.59;;;4.04;nan
23321;BME280;33376;51.306;4.752;2023-04-06T02:30:08;102055.72;;;4.04;nan
23321;BME280;33376;51.306;4.752;2023-04-06T02:32:33;102062.81;;;3.93;nan
23321;BME280;33376;51.306;4.752;2023-04-06T02:34:59;102067.31;;;3.76;nan
23321;BME280;33376;51.306;4.752;2023-04-06T02:37:25;102061.25;;;3.69;nan
23321;BME280;33376;51.306;4.752;2023-04-06T02:39:50;102069.88;;;3.82;nan
23321;BME280;33376;51.306;4.752;2023-04-06T02:42:16;102059.38;;;3.85;nan
23321;BME280;33376;51.306;4.752;2023-04-06T02:44:41;102070.84;;;3.69;nan
23321;BME280;33376;51.306;4.752;2023-04-06T02:47:07;102080.44;;;3.74;nan
23321;BME280;33376;51.306;4.752;2023-04-06T02:49:32;102083.16;;;3.61;nan
23321;BME280;33376;51.306;4.752;2023-04-06T02:51:57;102084.09;;;3.54;nan
23321;BME280;33376;51.306;4.752;2023-04-06T02:54:23;102084.06;;;3.57;nan
23321;BME280;33376;51.306;4.752;2023-04-06T02:56:48;102084.88;;;3.66;nan
23321;BME280;33376;51.306;4.752;2023-04-06T02:59:13;102087.44;;;3.72;nan
23321;BME280;33376;51.306;4.752;2023-04-06T03:01:38;102073.28;;;3.94;nan
23321;BME280;33376;51.306;4.752;2023-04-06T03:04:04;102066.31;;;3.93;nan
23321;BME280;33376;51.306;4.752;2023-04-06T03:06:29;102054.91;;;3.94;nan
23321;BME280;33376;51.306;4.752;2023-04-06T03:08:55;102058.34;;;4.04;nan
23321;BME280;33376;51.306;4.752;2023-04-06T03:11:20;102052.06;;;4.20;nan
23321;BME280;33376;51.306;4.752;2023-04-06T03:13:46;102043.34;;;4.19;nan
23321;BME280;33376;51.306;4.752;2023-04-06T03:16:11;102036.25;;;4.29;nan
23321;BME280;33376;51.306;4.752;2023-04-06T03:18:37;102038.91;;;4.26;nan
23321;BME280;33376;51.306;4.752;2023-04-06T03:21:02;102039.75;;;4.26;nan
23321;BME280;33376;51.306;4.752;2023-04-06T03:23:28;102032.78;;;4.24;nan
23321;BME280;33376;51.306;4.752;2023-04-06T03:25:53;102036.41;;;4.12;nan
23321;BME280;33376;51.306;4.752;2023-04-06T03:28:18;102028.53;;;4.12;nan
23321;BME280;33376;51.306;4.752;2023-04-06T03:30:44;102029.38;;;4.14;nan
23321;BME280;33376;51.306;4.752;2023-04-06T03:33:10;102025.00;;;4.18;nan
23321;BME280;33376;51.306;4.752;2023-04-06T03:35:36;102024.06;;;4.22;nan
23321;BME280;33376;51.306;4.752;2023-04-06T03:38:02;102028.38;;;4.24;nan
23321;BME280;33376;51.306;4.752;2023-04-06T03:40:35;102012.59;;;4.30;nan
23321;BME280;33376;51.306;4.752;2023-04-06T03:43:00;102022.28;;;4.24;nan
23321;BME280;33376;51.306;4.752;2023-04-06T03:45:28;102013.41;;;4.34;nan
23321;BME280;33376;51.306;4.752;2023-04-06T03:47:57;102025.47;;;4.51;nan
23321;BME280;33376;51.306;4.752;2023-04-06T03:50:25;102007.06;;;4.56;nan
23321;BME280;33376;51.306;4.752;2023-04-06T03:52:51;101995.50;;;4.72;nan
23321;BME280;33376;51.306;4.752;2023-04-06T03:55:24;101996.41;;;4.67;nan
23321;BME280;33376;51.306;4.752;2023-04-06T03:57:55;102005.28;;;4.58;nan
23321;BME280;33376;51.306;4.752;2023-04-06T04:00:20;102000.13;;;4.49;nan
23321;BME280;33376;51.306;4.752;2023-04-06T04:02:45;102002.56;;;4.67;nan
23321;BME280;33376;51.306;4.752;2023-04-06T04:05:11;102006.84;;;4.73;nan
23321;BME280;33376;51.306;4.752;2023-04-06T04:07:36;101993.63;;;4.80;nan
23321;BME280;33376;51.306;4.752;2023-04-06T04:10:01;101976.78;;;4.95;nan
23321;BME280;33376;51.306;4.752;2023-04-06T04:12:27;101981.09;;;5.00;nan
23321;BME280;33376;51.306;4.752;2023-04-06T04:14:52;101971.28;;;5.11;nan
23321;BME280;33376;51.306;4.752;2023-04-06T04:17:17;101957.63;;;4.85;nan
23321;BME280;33376;51.306;4.752;2023-04-06T04:19:42;101963.69;;;4.90;nan
23321;BME280;33376;51.306;4.752;2023-04-06T04:22:08;101958.44;;;4.90;nan
23321;BME280;33376;51.306;4.752;2023-04-06T04:24:33;101966.28;;;4.96;nan
23321;BME280;33376;51.306;4.752;2023-04-06T04:26:59;101965.34;;;4.99;nan
23321;BME280;33376;51.306;4.752;2023-04-06T04:29:25;101951.94;;;5.18;nan
23321;BME280;33376;51.306;4.752;2023-04-06T04:31:51;101937.66;;;5.31;nan
23321;BME280;33376;51.306;4.752;2023-04-06T04:34:17;101926.19;;;5.38;nan
23321;BME280;33376;51.306;4.752;2023-04-06T04:36:45;101915.88;;;5.26;nan
23321;BME280;33376;51.306;4.752;2023-04-06T04:39:10;101909.94;;;5.14;nan
23321;BME280;33376;51.306;4.752;2023-04-06T04:41:35;101911.69;;;5.13;nan
23321;BME280;33376;51.306;4.752;2023-04-06T04:44:00;101926.59;;;5.13;nan
23321;BME280;33376;51.306;4.752;2023-04-06T04:46:26;101941.75;;;4.96;nan
23321;BME280;33376;51.306;4.752;2023-04-06T04:48:51;101942.63;;;4.93;nan
23321;BME280;33376;51.306;4.752;2023-04-06T04:51:16;101947.09;;;4.87;nan
23321;BME280;33376;51.306;4.752;2023-04-06T04:53:41;101950.59;;;4.87;nan
23321;BME280;33376;51.306;4.752;2023-04-06T04:56:07;101959.47;;;4.82;nan
23321;BME280;33376;51.306;4.752;2023-04-06T04:58:32;101958.53;;;4.84;nan
23321;BME280;33376;51.306;4.752;2023-04-06T05:00:57;101965.50;;;4.88;nan
23321;BME280;33376;51.306;4.752;2023-04-06T05:03:23;101962.88;;;4.87;nan
23321;BME280;33376;51.306;4.752;2023-04-06T05:05:49;101964.72;;;4.82;nan
23321;BME280;33376;51.306;4.752;2023-04-06T05:08:15;101979.47;;;4.90;nan
23321;BME280;33376;51.306;4.752;2023-04-06T05:10:40;101971.50;;;4.95;nan
23321;BME280;33376;51.306;4.752;2023-04-06T05:13:05;101968.94;;;4.92;nan
23321;BME280;33376;51.306;4.752;2023-04-06T05:15:31;101976.66;;;5.05;nan
23321;BME280;33376;51.306;4.752;2023-04-06T05:17:56;101974.91;;;5.03;nan
23321;BME280;33376;51.306;4.752;2023-04-06T05:20:21;101989.91;;;4.98;nan
23321;BME280;33376;51.306;4.752;2023-04-06T05:22:47;101984.53;;;5.05;nan
23321;BME280;33376;51.306;4.752;2023-04-06T05:25:12;101978.44;;;5.02;nan
23321;BME280;33376;51.306;4.752;2023-04-06T05:27:38;101988.09;;;5.00;nan
23321;BME280;33376;51.306;4.752;2023-04-06T05:30:04;101989.66;;;5.13;nan
23321;BME280;33376;51.306;4.752;2023-04-06T05:32:29;101989.03;;;4.97;nan
23321;BME280;33376;51.306;4.752;2023-04-06T05:34:55;101988.88;;;5.08;nan
23321;BME280;33376;51.306;4.752;2023-04-06T05:37:21;102001.16;;;5.04;nan
23321;BME280;33376;51.306;4.752;2023-04-06T05:39:46;101997.69;;;5.04;nan
23321;BME280;33376;51.306;4.752;2023-04-06T05:42:11;102000.19;;;5.13;nan
23321;BME280;33376;51.306;4.752;2023-04-06T05:44:37;101988.59;;;5.26;nan
23321;BME280;33376;51.306;4.752;2023-04-06T05:47:02;101992.22;;;5.17;nan
23321;BME280;33376;51.306;4.752;2023-04-06T05:49:27;101983.16;;;5.38;nan
23321;BME280;33376;51.306;4.752;2023-04-06T05:51:53;101977.88;;;5.41;nan
23321;BME280;33376;51.306;4.752;2023-04-06T05:54:18;101966.34;;;5.48;nan
23321;BME280;33376;51.306;4.752;2023-04-06T05:56:43;101983.97;;;5.41;nan
23321;BME280;33376;51.306;4.752;2023-04-06T05:59:09;101975.97;;;5.49;nan
23321;BME280;33376;51.306;4.752;2023-04-06T06:01:34;101982.78;;;5.60;nan
23321;BME280;33376;51.306;4.752;2023-04-06T06:04:00;101977.44;;;5.66;nan
23321;BME280;33376;51.306;4.752;2023-04-06T06:06:25;101980.19;;;5.59;nan
23321;BME280;33376;51.306;4.752;2023-04-06T06:08:52;101993.19;;;5.69;nan
23321;BME280;33376;51.306;4.752;2023-04-06T06:11:17;101996.59;;;5.74;nan
23321;BME280;33376;51.306;4.752;2023-04-06T06:13:42;101991.84;;;5.97;nan
23321;BME280;33376;51.306;4.752;2023-04-06T06:16:08;101974.13;;;6.07;nan
23321;BME280;33376;51.306;4.752;2023-04-06T06:18:33;101967.78;;;6.19;nan
23321;BME280;33376;51.306;4.752;2023-04-06T06:20:58;101960.28;;;6.42;nan
23321;BME280;33376;51.306;4.752;2023-04-06T06:23:24;101935.47;;;6.53;nan
23321;BME280;33376;51.306;4.752;2023-04-06T06:25:49;101906.19;;;6.67;nan
23321;BME280;33376;51.306;4.752;2023-04-06T06:28:14;101880.28;;;6.85;nan
23321;BME280;33376;51.306;4.752;2023-04-06T06:30:40;101851.81;;;6.99;nan
23321;BME280;33376;51.306;4.752;2023-04-06T06:33:05;101852.44;;;7.10;nan
23321;BME280;33376;51.306;4.752;2023-04-06T06:35:30;101822.22;;;7.23;nan
23321;BME280;33376;51.306;4.752;2023-04-06T06:37:56;101798.00;;;7.41;nan
23321;BME280;33376;51.306;4.752;2023-04-06T06:40:21;101776.34;;;7.61;nan
23321;BME280;33376;51.306;4.752;2023-04-06T06:42:48;101755.19;;;7.93;nan
23321;BME280;33376;51.306;4.752;2023-04-06T06:45:14;101732.00;;;8.03;nan
23321;BME280;33376;51.306;4.752;2023-04-06T06:47:39;101694.66;;;8.15;nan
23321;BME280;33376;51.306;4.752;2023-04-06T06:50:06;101695.19;;;8.27;nan
23321;BME280;33376;51.306;4.752;2023-04-06T06:52:31;101665.38;;;8.50;nan
23321;BME280;33376;51.306;4.752;2023-04-06T06:54:57;101664.59;;;8.46;nan
23321;BME280;33376;51.306;4.752;2023-04-06T06:57:22;101668.63;;;8.58;nan
23321;BME280;33376;51.306;4.752;2023-04-06T06:59:47;101658.88;;;8.60;nan
23321;BME280;33376;51.306;4.752;2023-04-06T07:02:12;101629.41;;;8.70;nan
23321;BME280;33376;51.306;4.752;2023-04-06T07:04:38;101608.66;;;8.60;nan
23321;BME280;33376;51.306;4.752;2023-04-06T07:07:03;101622.00;;;8.55;nan
23321;BME280;33376;51.306;4.752;2023-04-06T07:09:28;101618.47;;;8.56;nan
23321;BME280;33376;51.306;4.752;2023-04-06T07:11:53;101624.47;;;8.61;nan
23321;BME280;33376;51.306;4.752;2023-04-06T07:14:19;101644.63;;;8.64;nan
23321;BME280;33376;51.306;4.752;2023-04-06T07:16:44;101629.41;;;8.70;nan
23321;BME280;33376;51.306;4.752;2023-04-06T07:19:10;101627.00;;;8.64;nan
23321;BME280;33376;51.306;4.752;2023-04-06T07:21:35;101629.81;;;8.84;nan
23321;BME280;33376;51.306;4.752;2023-04-06T07:24:01;101625.75;;;8.99;nan
23321;BME280;33376;51.306;4.752;2023-04-06T07:26:27;101622.03;;;8.80;nan
23321;BME280;33376;51.306;4.752;2023-04-06T07:28:52;101620.41;;;9.01;nan
23321;BME280;33376;51.306;4.752;2023-04-06T07:31:17;101639.19;;;8.93;nan
23321;BME280;33376;51.306;4.752;2023-04-06T07:33:42;101646.03;;;8.99;nan
23321;BME280;33376;51.306;4.752;2023-04-06T07:36:08;101669.84;;;8.99;nan
23321;BME280;33376;51.306;4.752;2023-04-06T07:38:33;101668.91;;;9.24;nan
23321;BME280;33376;51.306;4.752;2023-04-06T07:40:58;101673.91;;;9.33;nan
23321;BME280;33376;51.306;4.752;2023-04-06T07:43:24;101668.91;;;9.24;nan
23321;BME280;33376;51.306;4.752;2023-04-06T07:45:49;101688.56;;;9.42;nan
23321;BME280;33376;51.306;4.752;2023-04-06T07:48:15;101680.22;;;9.29;nan
23321;BME280;33376;51.306;4.752;2023-04-06T07:50:40;101682.03;;;9.52;nan
23321;BME280;33376;51.306;4.752;2023-04-06T07:53:05;101706.63;;;9.31;nan
23321;BME280;33376;51.306;4.752;2023-04-06T07:55:31;101727.47;;;9.15;nan
23321;BME280;33376;51.306;4.752;2023-04-06T07:57:56;101774.28;;;9.13;nan
23321;BME280;33376;51.306;4.752;2023-04-06T08:00:21;101812.63;;;9.00;nan
23321;BME280;33376;51.306;4.752;2023-04-06T08:02:47;101820.22;;;9.11;nan
23321;BME280;33376;51.306;4.752;2023-04-06T08:05:12;101856.91;;;8.93;nan
23321;BME280;33376;51.306;4.752;2023-04-06T08:07:37;101887.00;;;8.91;nan
23321;BME280;33376;51.306;4.752;2023-04-06T08:10:03;101902.28;;;8.81;nan
23321;BME280;33376;51.306;4.752;2023-04-06T08:12:28;101916.97;;;8.92;nan
23321;BME280;33376;51.306;4.752;2023-04-06T08:14:53;101937.84;;;8.71;nan
23321;BME280;33376;51.306;4.752;2023-04-06T08:17:18;101959.56;;;8.81;nan
23321;BME280;33376;51.306;4.752;2023-04-06T08:19:44;101973.78;;;8.78;nan
23321;BME280;33376;51.306;4.752;2023-04-06T08:22:09;101981.88;;;8.72;nan
23321;BME280;33376;51.306;4.752;2023-04-06T08:24:35;101996.59;;;8.81;nan
23321;BME280;33376;51.306;4.752;2023-04-06T08:27:00;102003.16;;;8.68;nan
23321;BME280;33376;51.306;4.752;2023-04-06T08:29:25;102008.38;;;8.71;nan
23321;BME280;33376;51.306;4.752;2023-04-06T08:31:51;102007.72;;;8.92;nan
23321;BME280;33376;51.306;4.752;2023-04-06T08:34:16;102007.69;;;8.93;nan
23321;BME280;33376;51.306;4.752;2023-04-06T08:36:41;102021.38;;;8.78;nan
23321;BME280;33376;51.306;4.752;2023-04-06T08:39:07;102023.91;;;8.81;nan
23321;BME280;33376;51.306;4.752;2023-04-06T08:41:32;102033.06;;;8.70;nan
23321;BME280;33376;51.306;4.752;2023-04-06T08:43:59;102024.47;;;8.62;nan
23321;BME280;33376;51.306;4.752;2023-04-06T08:46:25;102034.53;;;8.80;nan
23321;BME280;33376;51.306;4.752;2023-04-06T08:48:57;102036.31;;;8.79;nan
23321;BME280;33376;51.306;4.752;2023-04-06T08:51:23;102045.81;;;8.86;nan
23321;BME280;33376;51.306;4.752;2023-04-06T08:53:51;102044.59;;;8.98;nan
23321;BME280;33376;51.306;4.752;2023-04-06T08:56:19;102043.72;;;8.67;nan
23321;BME280;33376;51.306;4.752;2023-04-06T08:58:46;102052.31;;;8.75;nan
23321;BME280;33376;51.306;4.752;2023-04-06T09:01:12;102057.22;;;8.88;nan
23321;BME280;33376;51.306;4.752;2023-04-06T09:03:39;102055.91;;;9.03;nan
23321;BME280;33376;51.306;4.752;2023-04-06T09:06:05;102054.28;;;8.99;nan
23321;BME280;33376;51.306;4.752;2023-04-06T09:08:32;102055.00;;;9.04;nan
23321;BME280;33376;51.306;4.752;2023-04-06T09:10:57;102050.94;;;9.22;nan
23321;BME280;33376;51.306;4.752;2023-04-06T09:13:23;102041.78;;;9.04;nan
23321;BME280;33376;51.306;4.752;2023-04-06T09:15:57;102048.84;;;9.04;nan
23321;BME280;33376;51.306;4.752;2023-04-06T09:18:30;102065.69;;;9.01;nan
23321;BME280;33376;51.306;4.752;2023-04-06T09:23:23;102061.38;;;8.97;nan
23321;BME280;33376;51.306;4.752;2023-04-06T09:25:49;102060.81;;;8.86;nan
23321;BME280;33376;51.306;4.752;2023-04-06T09:28:14;102056.00;;;9.00;nan
23321;BME280;33376;51.306;4.752;2023-04-06T09:30:47;102057.00;;;8.96;nan
23321;BME280;33376;51.306;4.752;2023-04-06T09:33:12;102063.38;;;8.89;nan
23321;BME280;33376;51.306;4.752;2023-04-06T09:35:37;102055.19;;;8.98;nan
23321;BME280;33376;51.306;4.752;2023-04-06T09:38:10;102053.06;;;8.80;nan
23321;BME280;33376;51.306;4.752;2023-04-06T09:40:35;102055.19;;;8.98;nan
23321;BME280;33376;51.306;4.752;2023-04-06T09:43:00;102042.72;;;9.02;nan
23321;BME280;33376;51.306;4.752;2023-04-06T09:45:28;102049.53;;;9.10;nan
23321;BME280;33376;51.306;4.752;2023-04-06T09:47:54;102046.94;;;9.09;nan
23321;BME280;33376;51.306;4.752;2023-04-06T09:50:21;102055.94;;;9.02;nan
23321;BME280;33376;51.306;4.752;2023-04-06T09:52:48;102050.16;;;9.18;nan
23321;BME280;33376;51.306;4.752;2023-04-06T09:55:17;102047.19;;;9.29;nan
23321;BME280;33376;51.306;4.752;2023-04-06T09:57:45;102048.50;;;9.43;nan
23321;BME280;33376;51.306;4.752;2023-04-06T10:00:16;102045.22;;;9.35;nan
23321;BME280;33376;51.306;4.752;2023-04-06T10:08:18;102049.63;;;9.36;nan
23321;BME280;33376;51.306;4.752;2023-04-06T10:10:44;102051.63;;;9.56;nan
23321;BME280;33376;51.306;4.752;2023-04-06T10:13:10;102052.66;;;9.52;nan
23321;BME280;33376;51.306;4.752;2023-04-06T10:15:36;102043.31;;;9.40;nan
23321;BME280;33376;51.306;4.752;2023-04-06T10:18:02;102041.34;;;9.47;nan
23321;BME280;33376;51.306;4.752;2023-04-06T10:20:35;102044.81;;;9.49;nan
23321;BME280;33376;51.306;4.752;2023-04-06T10:23:13;102034.13;;;9.79;nan
23321;BME280;33376;51.306;4.752;2023-04-06T10:25:55;102036.47;;;9.61;nan
23321;BME280;33376;51.306;4.752;2023-04-06T10:28:20;102033.16;;;9.54;nan
23321;BME280;33376;51.306;4.752;2023-04-06T10:30:46;102041.78;;;9.61;nan
23321;BME280;33376;51.306;4.752;2023-04-06T10:35:40;102036.47;;;9.61;nan
23321;BME280;33376;51.306;4.752;2023-04-06T10:38:05;102034.34;;;9.72;nan
23321;BME280;33376;51.306;4.752;2023-04-06T10:40:31;102032.69;;;9.69;nan
23321;BME280;33376;51.306;4.752;2023-04-06T10:43:12;102021.97;;;9.45;nan
23321;BME280;33376;51.306;4.752;2023-04-06T10:45:38;102022.72;;;9.50;nan
23321;BME280;33376;51.306;4.752;2023-04-06T10:48:13;102022.19;;;9.39;nan
23321;BME280;33376;51.306;4.752;2023-04-06T10:50:39;102023.50;;;9.53;nan
23321;BME280;33376;51.306;4.752;2023-04-06T10:53:05;102021.63;;;9.57;nan
23321;BME280;33376;51.306;4.752;2023-04-06T10:55:31;102018.03;;;9.58;nan
23321;BME280;33376;51.306;4.752;2023-04-06T10:57:56;102006.97;;;9.45;nan
23321;BME280;33376;51.306;4.752;2023-04-06T11:00:22;102007.84;;;9.46;nan
23321;BME280;33376;51.306;4.752;2023-04-06T11:02:47;102006.72;;;9.53;nan
23321;BME280;33376;51.306;4.752;2023-04-06T11:05:13;102006.09;;;9.45;nan
23321;BME280;33376;51.306;4.752;2023-04-06T11:07:39;101998.88;;;9.50;nan
23321;BME280;33376;51.306;4.752;2023-04-06T11:10:05;101996.59;;;9.39;nan
23321;BME280;33376;51.306;4.752;2023-04-06T11:12:31;101998.56;;;9.60;nan
23321;BME280;33376;51.306;4.752;2023-04-06T11:14:57;101990.72;;;9.57;nan
23321;BME280;33376;51.306;4.752;2023-04-06T11:17:28;101977.44;;;9.59;nan
23321;BME280;33376;51.306;4.752;2023-04-06T11:19:54;101970.72;;;9.75;nan
23321;BME280;33376;51.306;4.752;2023-04-06T11:22:19;101965.44;;;9.73;nan
23321;BME280;33376;51.306;4.752;2023-04-06T11:24:44;101957.38;;;9.78;nan
23321;BME280;33376;51.306;4.752;2023-04-06T11:27:10;101941.59;;;9.73;nan
23321;BME280;33376;51.306;4.752;2023-04-06T11:29:35;101926.75;;;9.95;nan
23321;BME280;33376;51.306;4.752;2023-04-06T11:32:05;101922.22;;;9.73;nan
23321;BME280;33376;51.306;4.752;2023-04-06T11:34:35;101911.28;;;9.57;nan
23321;BME280;33376;51.306;4.752;2023-04-06T11:37:02;101899.97;;;9.52;nan
23321;BME280;33376;51.306;4.752;2023-04-06T11:39:30;101888.63;;;9.49;nan
23321;BME280;33376;51.306;4.752;2023-04-06T11:41:59;101881.28;;;9.57;nan
23321;BME280;33376;51.306;4.752;2023-04-06T11:46:53;101880.56;;;9.26;nan
23321;BME280;33376;51.306;4.752;2023-04-06T11:49:19;101880.72;;;9.21;nan
23321;BME280;33376;51.306;4.752;2023-04-06T11:51:45;101869.53;;;9.39;nan
23321;BME280;33376;51.306;4.752;2023-04-06T11:54:11;101860.00;;;9.34;nan
23321;BME280;33376;51.306;4.752;2023-04-06T11:56:36;101852.31;;;9.26;nan
23321;BME280;33376;51.306;4.752;2023-04-06T11:59:01;101856.69;;;9.27;nan
23321;BME280;33376;51.306;4.752;2023-04-06T12:01:28;101851.00;;;9.13;nan
23321;BME280;33376;51.306;4.752;2023-04-06T12:03:53;101856.63;;;9.30;nan
23321;BME280;33376;51.306;4.752;2023-04-06T12:06:18;101847.53;;;9.11;nan
23321;BME280;33376;51.306;4.752;2023-04-06T12:08:44;101846.16;;;9.26;nan
23321;BME280;33376;51.306;4.752;2023-04-06T12:11:10;101844.81;;;9.14;nan
23321;BME280;33376;51.306;4.752;2023-04-06T12:13:35;101836.94;;;9.37;nan
23321;BME280;33376;51.306;4.752;2023-04-06T12:16:01;101826.63;;;9.30;nan
23321;BME280;33376;51.306;4.752;2023-04-06T12:18:26;101821.28;;;9.31;nan
23321;BME280;33376;51.306;4.752;2023-04-06T12:20:51;101815.66;;;9.40;nan
23321;BME280;33376;51.306;4.752;2023-04-06T12:23:17;101808.78;;;9.36;nan
23321;BME280;33376;51.306;4.752;2023-04-06T12:25:42;101803.38;;;9.39;nan
23321;BME280;33376;51.306;4.752;2023-04-06T12:28:08;101810.09;;;9.23;nan
23321;BME280;33376;51.306;4.752;2023-04-06T12:30:36;101802.09;;;9.25;nan
23321;BME280;33376;51.306;4.752;2023-04-06T12:33:02;101800.72;;;9.13;nan
23321;BME280;33376;51.306;4.752;2023-04-06T12:35:27;101793.88;;;9.08;nan
23321;BME280;33376;51.306;4.752;2023-04-06T12:37:52;101790.66;;;9.24;nan
23321;BME280;33376;51.306;4.752;2023-04-06T12:40:17;101771.34;;;9.22;nan
23321;BME280;33376;51.306;4.752;2023-04-06T12:42:43;101769.09;;;9.10;nan
23321;BME280;33376;51.306;4.752;2023-04-06T12:45:08;101764.16;;;9.00;nan
23321;BME280;33376;51.306;4.752;2023-04-06T12:47:33;101752.28;;;9.11;nan
23321;BME280;33376;51.306;4.752;2023-04-06T12:50:01;101750.19;;;9.21;nan
23321;BME280;33376;51.306;4.752;2023-04-06T12:52:26;101735.41;;;9.15;nan
23321;BME280;33376;51.306;4.752;2023-04-06T12:54:52;101735.28;;;9.18;nan
23321;BME280;33376;51.306;4.752;2023-04-06T12:57:17;101747.53;;;9.21;nan
23321;BME280;33376;51.306;4.752;2023-04-06T12:59:43;101747.06;;;9.34;nan
23321;BME280;33376;51.306;4.752;2023-04-06T13:02:09;101741.06;;;9.29;nan
23321;BME280;33376;51.306;4.752;2023-04-06T13:04:34;101742.50;;;9.39;nan
23321;BME280;33376;51.306;4.752;2023-04-06T13:06:59;101728.63;;;9.56;nan
23321;BME280;33376;51.306;4.752;2023-04-06T13:09:25;101722.38;;;9.34;nan
23321;BME280;33376;51.306;4.752;2023-04-06T13:11:50;101730.06;;;9.41;nan
23321;BME280;33376;51.306;4.752;2023-04-06T13:14:15;101719.97;;;9.52;nan
23321;BME280;33376;51.306;4.752;2023-04-06T13:16:41;101717.56;;;9.45;nan
23321;BME280;33376;51.306;4.752;2023-04-06T13:19:06;101713.63;;;9.56;nan
23321;BME280;33376;51.306;4.752;2023-04-06T13:21:31;101708.16;;;9.61;nan
23321;BME280;33376;51.306;4.752;2023-04-06T13:23:57;101703.78;;;9.60;nan
23321;BME280;33376;51.306;4.752;2023-04-06T13:26:22;101706.41;;;9.83;nan
23321;BME280;33376;51.306;4.752;2023-04-06T13:28:47;101695.88;;;9.81;nan